createdAt,value
2022-10-28T00:00:18.256Z,79.50
2022-10-28T00:02:51.372Z,78.96
2022-10-28T00:05:18.178Z,77.92
2022-10-28T00:07:44.832Z,78.61
2022-10-28T00:10:13.380Z,78.25
2022-10-28T00:12:40.090Z,79.66
2022-10-28T00:15:07.126Z,80.09
2022-10-28T00:17:33.719Z,80.15
2022-10-28T00:20:00.291Z,79.68
2022-10-28T00:22:28.877Z,79.47
2022-10-28T00:24:55.587Z,78.96
2022-10-28T00:27:25.267Z,79.11
2022-10-28T00:29:55.133Z,78.74
2022-10-28T00:32:21.720Z,78.49
2022-10-28T00:34:48.710Z,78.40
2022-10-28T00:37:17.634Z,77.85
2022-10-28T00:39:44.181Z,78.38
2022-10-28T00:42:11.279Z,78.48
2022-10-28T00:44:50.137Z,78.28
2022-10-28T00:47:29.154Z,78.47
2022-10-28T00:50:14.806Z,78.49
2022-10-28T00:52:41.835Z,78.47
2022-10-28T00:55:08.861Z,78.29
2022-10-28T00:57:37.235Z,77.92
2022-10-28T01:00:07.022Z,77.70
2022-10-28T01:02:40.937Z,77.38
2022-10-28T01:05:08.192Z,76.95
2022-10-28T01:07:34.987Z,75.88
2022-10-28T01:10:01.762Z,75.91
2022-10-28T01:12:56.253Z,75.19
2022-10-28T01:15:38.229Z,75.53
2022-10-28T01:18:37.181Z,76.05
2022-10-28T01:21:37.185Z,75.41
2022-10-28T01:24:20.264Z,75.89
2022-10-28T01:26:52.889Z,74.85
2022-10-28T01:29:32.147Z,75.00
2022-10-28T01:32:07.975Z,75.80
2022-10-28T01:35:24.724Z,75.50
2022-10-28T01:38:17.935Z,75.39
2022-10-28T01:41:08.414Z,75.46
2022-10-28T01:43:55.782Z,74.92
2022-10-28T01:46:30.888Z,75.20
2022-10-28T01:49:01.206Z,74.84
2022-10-28T01:51:35.438Z,74.59
2022-10-28T01:54:04.045Z,75.23
2022-10-28T01:56:33.600Z,75.33
2022-10-28T01:59:01.327Z,75.01
2022-10-28T02:01:29.687Z,74.83
2022-10-28T02:03:56.800Z,74.86
2022-10-28T02:06:26.542Z,74.86
2022-10-28T02:09:12.011Z,74.96
2022-10-28T02:11:38.492Z,75.06
2022-10-28T02:14:33.080Z,75.35
2022-10-28T02:17:02.653Z,75.14
2022-10-28T02:19:43.538Z,75.23
2022-10-28T02:22:16.324Z,75.30
2022-10-28T02:25:01.581Z,74.85
2022-10-28T02:27:36.615Z,74.91
2022-10-28T02:30:22.059Z,74.68
2022-10-28T02:32:58.804Z,74.48
2022-10-28T02:35:50.711Z,75.02
2022-10-28T02:38:21.330Z,75.61
2022-10-28T02:43:25.012Z,75.31
2022-10-28T02:45:55.511Z,75.72
2022-10-28T02:48:28.530Z,75.53
2022-10-28T02:50:59.221Z,75.09
2022-10-28T02:53:46.353Z,75.58
2022-10-28T02:56:13.826Z,75.76
2022-10-28T02:58:41.018Z,75.96
2022-10-28T03:01:08.058Z,75.80
2022-10-28T03:03:37.682Z,75.58
2022-10-28T03:06:04.534Z,75.94
2022-10-28T03:08:32.673Z,75.57
2022-10-28T03:10:59.226Z,76.33
2022-10-28T03:13:26.249Z,76.45
2022-10-28T03:15:52.921Z,76.80
2022-10-28T03:18:19.613Z,76.57
2022-10-28T03:20:47.150Z,76.43
2022-10-28T03:23:13.822Z,76.46
2022-10-28T03:25:40.464Z,76.53
2022-10-28T03:28:07.094Z,76.40
2022-10-28T03:30:33.649Z,76.49
2022-10-28T03:33:00.182Z,76.98
2022-10-28T03:39:18.729Z,77.51
2022-10-28T03:41:45.753Z,77.75
2022-10-28T03:44:12.321Z,77.71
2022-10-28T03:46:39.121Z,77.08
2022-10-28T03:49:05.787Z,77.12
2022-10-28T03:51:32.372Z,77.18
2022-10-28T03:53:59.008Z,76.87
2022-10-28T03:56:25.604Z,76.39
2022-10-28T04:01:23.803Z,76.33
2022-10-28T04:03:50.455Z,76.57
2022-10-28T04:06:17.189Z,76.76
2022-10-28T04:08:43.736Z,76.09
2022-10-28T04:11:10.400Z,76.13
2022-10-28T04:13:37.003Z,76.18
2022-10-28T04:16:03.816Z,75.99
2022-10-28T04:18:30.410Z,75.57
2022-10-28T04:20:57.055Z,75.31
2022-10-28T04:23:23.604Z,76.08
2022-10-28T04:25:54.177Z,75.86
2022-10-28T04:28:22.233Z,75.49
2022-10-28T04:31:01.795Z,75.88
2022-10-28T04:33:29.691Z,76.36
2022-10-28T04:35:56.336Z,76.01
2022-10-28T04:40:55.506Z,76.14
2022-10-28T04:43:22.157Z,75.62
2022-10-28T04:45:48.724Z,75.73
2022-10-28T04:48:15.471Z,75.74
2022-10-28T04:50:42.300Z,75.70
2022-10-28T04:53:12.536Z,75.10
2022-10-28T04:55:39.417Z,75.67
2022-10-28T04:58:06.281Z,75.59
2022-10-28T05:00:36.088Z,75.18
2022-10-28T05:03:03.312Z,75.92
2022-10-28T05:05:30.005Z,75.59
2022-10-28T05:07:56.944Z,74.57
2022-10-28T05:10:23.825Z,74.96
2022-10-28T05:12:50.570Z,75.83
2022-10-28T05:15:17.236Z,76.43
2022-10-28T05:17:45.228Z,76.93
2022-10-28T05:20:12.711Z,76.84
2022-10-28T05:22:47.163Z,77.21
2022-10-28T05:25:14.125Z,77.13
2022-10-28T05:27:40.719Z,76.93
2022-10-28T05:30:08.182Z,76.98
2022-10-28T05:32:35.000Z,76.83
2022-10-28T05:35:01.686Z,76.92
2022-10-28T05:37:28.313Z,77.02
2022-10-28T05:39:56.457Z,76.92
2022-10-28T05:42:23.168Z,76.71
2022-10-28T05:44:49.911Z,76.55
2022-10-28T05:47:17.554Z,76.30
2022-10-28T05:49:44.504Z,76.51
2022-10-28T05:52:13.554Z,76.24
2022-10-28T05:54:40.206Z,75.93
2022-10-28T05:57:09.602Z,76.00
2022-10-28T05:59:36.237Z,76.34
2022-10-28T06:02:03.317Z,75.34
2022-10-28T06:04:31.090Z,74.60
2022-10-28T06:06:57.859Z,75.46
2022-10-28T06:09:27.461Z,74.86
2022-10-28T06:11:52.563Z,74.12
2022-10-28T06:14:19.186Z,74.77
2022-10-28T06:16:45.847Z,74.99
2022-10-28T06:19:12.551Z,74.61
2022-10-28T06:21:39.240Z,75.30
2022-10-28T06:24:11.225Z,75.18
2022-10-28T06:26:39.499Z,75.47
2022-10-28T06:29:09.404Z,74.90
2022-10-28T06:31:40.856Z,74.37
2022-10-28T06:34:08.446Z,74.32
2022-10-28T06:36:35.177Z,75.98
2022-10-28T06:39:01.926Z,75.40
2022-10-28T06:41:29.041Z,75.99
2022-10-28T06:43:55.672Z,76.51
2022-10-28T06:46:22.325Z,76.68
2022-10-28T06:48:50.591Z,76.61
2022-10-28T06:51:17.266Z,76.22
2022-10-28T06:53:43.961Z,75.59
2022-10-28T06:56:10.867Z,75.58
2022-10-28T06:58:37.539Z,75.84
2022-10-28T07:01:05.637Z,75.62
2022-10-28T07:03:35.044Z,75.29
2022-10-28T07:06:01.940Z,75.37
2022-10-28T07:08:29.156Z,75.29
2022-10-28T07:10:57.191Z,75.33
2022-10-28T07:13:24.659Z,75.24
2022-10-28T07:15:56.068Z,74.70
2022-10-28T07:18:23.820Z,74.36
2022-10-28T07:20:51.288Z,74.34
2022-10-28T07:23:18.357Z,73.75
2022-10-28T07:28:18.980Z,72.86
2022-10-28T07:30:45.844Z,73.19
2022-10-28T07:33:12.554Z,72.62
2022-10-28T07:35:39.356Z,72.42
2022-10-28T07:38:05.952Z,72.58
2022-10-28T07:40:32.699Z,72.35
2022-10-28T07:42:59.596Z,73.06
2022-10-28T07:45:26.388Z,73.33
2022-10-28T07:47:59.235Z,73.14
2022-10-28T07:50:25.974Z,73.33
2022-10-28T07:52:53.045Z,73.29
2022-10-28T07:55:21.536Z,72.97
2022-10-28T07:57:48.577Z,72.60
2022-10-28T08:00:19.031Z,72.75
2022-10-28T08:02:45.669Z,72.35
2022-10-28T08:05:12.410Z,72.25
2022-10-28T08:07:39.203Z,72.40
2022-10-28T08:10:06.412Z,72.58
2022-10-28T08:12:33.093Z,72.00
2022-10-28T08:15:02.922Z,71.88
2022-10-28T08:17:29.908Z,71.84
2022-10-28T08:19:56.653Z,71.96
2022-10-28T08:22:23.483Z,71.95
2022-10-28T08:24:50.132Z,71.65
2022-10-28T08:27:16.770Z,71.47
2022-10-28T08:29:43.465Z,70.87
2022-10-28T08:32:10.108Z,70.57
2022-10-28T08:34:39.373Z,70.84
2022-10-28T08:37:09.326Z,70.71
2022-10-28T08:39:36.024Z,70.79
2022-10-28T08:42:17.574Z,71.34
2022-10-28T08:45:22.500Z,70.84
2022-10-28T08:48:07.548Z,70.57
2022-10-28T08:50:44.723Z,70.58
2022-10-28T08:53:26.776Z,70.22
2022-10-28T08:55:57.212Z,69.71
2022-10-28T08:58:26.395Z,70.24
2022-10-28T09:00:57.662Z,69.28
2022-10-28T09:03:26.153Z,68.83
2022-10-28T09:06:06.362Z,69.12
2022-10-28T09:08:40.874Z,68.97
2022-10-28T09:11:10.525Z,68.34
2022-10-28T09:14:30.843Z,68.00
2022-10-28T09:17:00.826Z,67.42
2022-10-28T09:19:39.656Z,66.98
2022-10-28T09:22:12.324Z,66.52
2022-10-28T09:25:05.782Z,65.94
2022-10-28T09:28:03.944Z,65.21
2022-10-28T09:30:59.663Z,64.85
2022-10-28T09:33:35.513Z,64.09
2022-10-28T09:36:07.961Z,66.02
2022-10-28T09:38:37.409Z,65.41
2022-10-28T09:41:28.650Z,65.63
2022-10-28T09:44:25.726Z,65.08
2022-10-28T09:46:57.494Z,65.42
2022-10-28T09:49:27.858Z,64.87
2022-10-28T09:52:19.030Z,65.12
2022-10-28T09:54:52.245Z,64.32
2022-10-28T09:57:34.243Z,64.74
2022-10-28T10:02:45.625Z,63.90
2022-10-28T10:05:18.968Z,64.07
2022-10-28T10:07:55.056Z,65.10
2022-10-28T10:10:45.104Z,65.05
2022-10-28T10:13:13.506Z,65.23
2022-10-28T10:15:44.963Z,65.58
2022-10-28T10:18:19.099Z,65.01
2022-10-28T10:20:53.446Z,64.76
2022-10-28T10:23:23.187Z,63.96
2022-10-28T10:26:14.288Z,63.24
2022-10-28T10:28:45.394Z,63.83
2022-10-28T10:31:20.917Z,64.15
2022-10-28T10:33:58.433Z,63.75
2022-10-28T10:36:31.468Z,62.92
2022-10-28T10:39:04.749Z,62.81
2022-10-28T10:41:43.307Z,63.43
2022-10-28T10:44:22.575Z,63.67
2022-10-28T10:47:05.953Z,63.50
2022-10-28T10:49:34.701Z,62.73
2022-10-28T10:52:10.323Z,62.71
2022-10-28T10:54:38.420Z,62.33
2022-10-28T10:57:17.986Z,62.56
2022-10-28T10:59:49.651Z,62.39
2022-10-28T11:02:39.802Z,61.76
2022-10-28T11:05:09.171Z,61.29
2022-10-28T11:07:36.954Z,61.43
2022-10-28T11:10:04.167Z,61.60
2022-10-28T11:12:32.257Z,62.31
2022-10-28T11:15:03.251Z,62.40
2022-10-28T11:17:34.671Z,62.16
2022-10-28T11:20:22.992Z,61.96
2022-10-28T11:23:00.482Z,61.78
2022-10-28T11:25:36.972Z,62.17
2022-10-28T11:28:04.548Z,61.95
2022-10-28T11:30:46.856Z,62.40
2022-10-28T11:33:42.660Z,63.01
2022-10-28T11:36:09.344Z,63.04
2022-10-28T11:38:57.418Z,62.45
2022-10-28T11:41:45.799Z,62.13
2022-10-28T11:44:31.708Z,62.39
2022-10-28T11:47:05.441Z,62.21
2022-10-28T11:50:07.150Z,62.24
2022-10-28T11:52:51.683Z,62.39
2022-10-28T11:55:42.947Z,63.36
2022-10-28T11:58:33.298Z,63.51
2022-10-28T12:01:06.819Z,62.97
2022-10-28T12:03:54.080Z,63.08
2022-10-28T12:06:20.690Z,63.46
2022-10-28T12:09:02.835Z,63.21
2022-10-28T12:11:36.658Z,63.80
2022-10-28T12:14:46.111Z,63.52
2022-10-28T12:17:27.835Z,63.76
2022-10-28T12:20:01.377Z,64.77
2022-10-28T12:22:29.621Z,64.34
2022-10-28T12:24:58.370Z,63.60
2022-10-28T12:27:30.067Z,64.13
2022-10-28T12:30:02.363Z,63.93
2022-10-28T12:32:31.866Z,64.64
2022-10-28T12:35:26.407Z,63.86
2022-10-28T12:38:28.755Z,64.43
2022-10-28T12:41:30.436Z,64.47
2022-10-28T12:43:57.139Z,64.47
2022-10-28T12:46:47.188Z,64.07
2022-10-28T12:49:22.027Z,64.57
2022-10-28T12:55:08.302Z,64.68
2022-10-28T12:57:35.411Z,64.86
2022-10-28T13:00:07.072Z,64.93
2022-10-28T13:02:45.504Z,64.84
2022-10-28T13:05:20.697Z,64.97
2022-10-28T13:08:34.828Z,65.10
2022-10-28T13:11:23.945Z,64.96
2022-10-28T13:14:31.546Z,65.27
2022-10-28T13:17:15.698Z,65.36
2022-10-28T13:20:13.200Z,66.09
2022-10-28T13:22:43.282Z,66.24
2022-10-28T13:25:27.693Z,66.37
2022-10-28T13:28:00.762Z,66.03
2022-10-28T13:30:58.170Z,66.01
2022-10-28T13:33:29.459Z,66.29
2022-10-28T13:36:17.661Z,66.78
2022-10-28T13:38:53.339Z,67.64
2022-10-28T13:41:34.811Z,67.47
2022-10-28T13:44:10.480Z,67.38
2022-10-28T13:46:58.848Z,64.91
2022-10-28T13:49:28.886Z,64.58
2022-10-28T13:52:06.973Z,64.49
2022-10-28T13:54:51.841Z,62.88
2022-10-28T13:57:37.247Z,62.56
2022-10-28T14:00:09.363Z,62.20
2022-10-28T14:02:40.990Z,60.72
2022-10-28T14:05:24.922Z,60.99
2022-10-28T14:08:00.484Z,61.32
2022-10-28T14:10:31.133Z,61.38
2022-10-28T14:13:03.252Z,61.19
2022-10-28T14:15:36.828Z,60.16
2022-10-28T14:21:07.369Z,58.84
2022-10-28T14:23:33.893Z,58.93
2022-10-28T14:26:04.924Z,58.77
2022-10-28T14:28:31.591Z,59.61
2022-10-28T14:31:14.422Z,59.52
2022-10-28T14:33:44.586Z,59.23
2022-10-28T14:36:14.211Z,58.90
2022-10-28T14:39:08.763Z,59.16
2022-10-28T14:42:04.210Z,59.06
2022-10-28T14:44:52.242Z,58.55
2022-10-28T14:47:54.459Z,59.23
2022-10-28T14:50:25.907Z,58.92
2022-10-28T14:52:53.996Z,59.91
2022-10-28T14:55:31.377Z,59.96
2022-10-28T14:58:16.925Z,59.89
2022-10-28T15:04:06.310Z,60.51
2022-10-28T15:06:41.663Z,61.42
2022-10-28T15:09:31.819Z,60.96
2022-10-28T15:12:08.010Z,61.18
2022-10-28T15:14:56.227Z,61.16
2022-10-28T15:17:26.439Z,61.17
2022-10-28T15:19:58.004Z,60.18
2022-10-28T15:22:31.245Z,61.14
2022-10-28T15:25:12.670Z,60.79
2022-10-28T15:27:41.387Z,60.79
2022-10-28T15:30:16.317Z,61.53
2022-10-28T15:32:42.988Z,60.56
2022-10-28T15:35:45.288Z,59.61
2022-10-28T15:38:29.809Z,60.53
2022-10-28T15:40:57.103Z,61.84
2022-10-28T15:43:28.506Z,61.59
2022-10-28T15:46:08.952Z,61.82
2022-10-28T15:48:35.710Z,62.45
2022-10-28T15:52:22.920Z,62.70
2022-10-28T15:54:56.638Z,63.55
2022-10-28T15:57:33.581Z,63.79
2022-10-28T16:00:23.159Z,64.30
2022-10-28T16:03:05.326Z,64.88
2022-10-28T16:05:32.150Z,64.89
2022-10-28T16:08:17.274Z,65.41
2022-10-28T16:10:49.614Z,65.36
2022-10-28T16:13:19.281Z,65.20
2022-10-28T16:15:51.273Z,65.26
2022-10-28T16:18:18.022Z,65.95
2022-10-28T16:20:45.459Z,65.55
2022-10-28T16:23:20.973Z,65.59
2022-10-28T16:25:48.741Z,66.04
2022-10-28T16:28:27.862Z,66.33
2022-10-28T16:31:05.431Z,66.83
2022-10-28T16:33:34.455Z,66.85
2022-10-28T16:36:02.675Z,67.36
2022-10-28T16:38:39.007Z,66.63
2022-10-28T16:41:17.275Z,67.13
2022-10-28T16:43:44.656Z,67.17
2022-10-28T16:46:23.692Z,67.29
2022-10-28T16:49:08.552Z,68.07
2022-10-28T16:51:35.388Z,67.93
2022-10-28T16:54:02.076Z,67.65
2022-10-28T16:56:29.091Z,67.93
2022-10-28T16:58:55.939Z,68.21
2022-10-28T17:01:22.843Z,68.29
2022-10-28T17:03:49.595Z,68.74
2022-10-28T17:06:18.754Z,68.58
2022-10-28T17:11:34.286Z,69.26
2022-10-28T17:14:01.296Z,69.73
2022-10-28T17:16:27.932Z,69.89
2022-10-28T17:18:54.707Z,70.43
2022-10-28T17:21:21.419Z,70.37
2022-10-28T17:23:48.080Z,70.34
2022-10-28T17:26:15.108Z,70.67
2022-10-28T17:28:41.731Z,70.41
2022-10-28T17:31:08.797Z,70.30
2022-10-28T17:33:35.555Z,70.44
2022-10-28T17:36:08.970Z,71.15
2022-10-28T17:38:35.873Z,71.88
2022-10-28T17:41:02.674Z,71.52
2022-10-28T17:43:29.335Z,71.37
2022-10-28T17:46:07.641Z,71.56
2022-10-28T17:48:34.476Z,72.15
2022-10-28T17:51:01.264Z,71.99
2022-10-28T17:53:27.899Z,71.99
2022-10-28T17:59:35.991Z,72.82
2022-10-28T18:02:03.143Z,73.29
2022-10-28T18:04:30.441Z,73.39
2022-10-28T18:06:57.942Z,73.39
2022-10-28T18:09:25.144Z,73.89
2022-10-28T18:11:51.933Z,73.94
2022-10-28T18:14:20.168Z,73.83
2022-10-28T18:16:46.891Z,73.94
2022-10-28T18:19:15.037Z,73.93
2022-10-28T18:21:48.481Z,73.87
2022-10-28T18:24:15.825Z,74.55
2022-10-28T18:26:42.493Z,75.54
2022-10-28T18:29:14.102Z,75.73
2022-10-28T18:31:43.857Z,76.32
2022-10-28T18:34:11.314Z,76.69
2022-10-28T18:36:38.082Z,76.80
2022-10-28T18:39:06.941Z,77.35
2022-10-28T18:41:41.473Z,76.75
2022-10-28T18:44:14.122Z,76.56
2022-10-28T18:46:41.233Z,76.76
2022-10-28T18:49:07.864Z,76.39
2022-10-28T18:51:34.807Z,77.20
2022-10-28T18:54:01.692Z,77.07
2022-10-28T18:56:32.039Z,77.26
2022-10-28T18:58:58.814Z,77.39
2022-10-28T19:01:29.918Z,77.81
2022-10-28T19:03:59.339Z,77.91
2022-10-28T19:06:32.683Z,77.61
2022-10-28T19:09:05.141Z,77.60
2022-10-28T19:11:33.248Z,78.52
2022-10-28T19:14:08.308Z,79.00
2022-10-28T19:16:35.595Z,79.30
2022-10-28T19:19:06.167Z,79.69
2022-10-28T19:21:41.012Z,79.15
2022-10-28T19:24:08.528Z,79.25
2022-10-28T19:26:35.662Z,79.11
2022-10-28T19:29:04.191Z,78.81
2022-10-28T19:31:35.827Z,78.44
2022-10-28T19:34:02.452Z,77.64
2022-10-28T19:36:30.151Z,77.50
2022-10-28T19:38:57.598Z,77.30
2022-10-28T19:41:28.579Z,77.63
2022-10-28T19:43:59.639Z,77.70
2022-10-28T19:46:31.940Z,77.89
2022-10-28T19:49:00.774Z,78.62
2022-10-28T19:51:30.929Z,78.04
2022-10-28T19:54:00.229Z,78.42
2022-10-28T19:56:31.432Z,78.32
2022-10-28T19:59:05.506Z,78.22
2022-10-28T20:01:35.174Z,77.90
2022-10-28T20:04:05.057Z,78.53
2022-10-28T20:06:36.628Z,78.68
2022-10-28T20:09:07.600Z,78.85
2022-10-28T20:11:40.070Z,78.43
2022-10-28T20:14:12.957Z,78.56
2022-10-28T20:16:43.224Z,79.31
2022-10-28T20:19:10.089Z,79.20
2022-10-28T20:21:44.090Z,79.39
2022-10-28T20:24:10.996Z,79.77
2022-10-28T20:26:38.644Z,79.74
2022-10-28T20:29:07.001Z,79.80
2022-10-28T20:31:34.329Z,79.95
2022-10-28T20:34:04.009Z,80.47
2022-10-28T20:36:39.090Z,80.33
2022-10-28T20:39:11.993Z,81.33
2022-10-28T20:41:43.502Z,81.27
2022-10-28T20:44:13.426Z,80.54
2022-10-28T20:46:40.625Z,80.14
2022-10-28T20:49:10.742Z,80.21
2022-10-28T20:51:37.497Z,80.38
2022-10-28T20:54:04.460Z,80.20
2022-10-28T20:56:32.948Z,80.99
2022-10-28T20:58:59.933Z,81.12
2022-10-28T21:01:29.386Z,81.27
2022-10-28T21:03:57.418Z,80.72
2022-10-28T21:06:24.285Z,81.17
2022-10-28T21:08:51.797Z,80.48
2022-10-28T21:11:18.363Z,80.98
2022-10-28T21:13:52.747Z,81.32
2022-10-28T21:16:19.854Z,81.18
2022-10-28T21:18:46.852Z,81.38
2022-10-28T21:21:13.694Z,81.29
2022-10-28T21:23:40.378Z,81.82
2022-10-28T21:26:08.063Z,81.16
2022-10-28T21:28:35.845Z,80.95
2022-10-28T21:31:08.007Z,80.64
2022-10-28T21:33:36.008Z,81.08
2022-10-28T21:36:05.883Z,80.21
2022-10-28T21:38:33.674Z,80.26
2022-10-28T21:41:03.213Z,80.71
2022-10-28T21:43:32.191Z,81.20
2022-10-28T21:45:58.918Z,81.69
2022-10-28T21:48:26.465Z,81.39
2022-10-28T21:50:54.632Z,81.12
2022-10-28T21:53:21.586Z,81.15
2022-10-28T21:55:50.000Z,81.36
2022-10-28T21:58:18.176Z,81.77
2022-10-28T22:00:45.011Z,82.56
2022-10-28T22:03:12.819Z,82.75
2022-10-28T22:05:39.482Z,82.44
2022-10-28T22:08:06.245Z,82.10
2022-10-28T22:10:32.866Z,82.24
2022-10-28T22:12:59.455Z,81.93
2022-10-28T22:15:26.072Z,82.32
2022-10-28T22:17:52.878Z,82.67
2022-10-28T22:20:19.739Z,83.27
2022-10-28T22:22:46.400Z,83.10
2022-10-28T22:25:13.039Z,82.90
2022-10-28T22:27:39.684Z,82.56
2022-10-28T22:30:06.736Z,82.73
2022-10-28T22:32:33.271Z,82.78
2022-10-28T22:34:59.965Z,82.65
2022-10-28T22:37:26.553Z,83.32
2022-10-28T22:39:53.156Z,83.35
2022-10-28T22:42:19.709Z,83.35
2022-10-28T22:44:46.305Z,83.18
2022-10-28T22:47:13.001Z,83.08
2022-10-28T22:49:39.589Z,82.94
2022-10-28T22:52:06.268Z,83.15
2022-10-28T22:54:32.839Z,83.73
2022-10-28T22:56:59.520Z,83.56
2022-10-28T22:59:26.119Z,83.39
2022-10-28T23:01:52.789Z,84.41
2022-10-28T23:04:19.893Z,84.44
2022-10-28T23:06:46.885Z,84.65
2022-10-28T23:09:13.467Z,85.01
2022-10-28T23:11:40.020Z,85.15
2022-10-28T23:14:06.694Z,85.35
2022-10-28T23:16:33.275Z,86.17
2022-10-28T23:19:03.096Z,86.29
2022-10-28T23:21:29.696Z,86.82
2022-10-28T23:23:58.266Z,86.54
2022-10-28T23:26:28.027Z,86.29
2022-10-28T23:28:57.892Z,86.01
2022-10-28T23:31:24.498Z,84.04
2022-10-28T23:33:52.936Z,84.15
2022-10-28T23:36:19.482Z,85.09
2022-10-28T23:38:46.251Z,84.37
2022-10-28T23:41:16.078Z,84.30
2022-10-28T23:43:42.863Z,84.22
2022-10-28T23:46:09.829Z,84.55
2022-10-28T23:48:36.393Z,84.53
2022-10-28T23:51:03.131Z,83.39
2022-10-28T23:53:30.650Z,82.91
2022-10-28T23:55:57.764Z,82.76
2022-10-28T23:58:24.536Z,82.96
